Terminal Aerodrome Forecast
Issued by NWS

Home | Current Version | Previous Version | Text Only | Print | Product List | Glossary On
Versions: 1 2 3 4 5 6 7 8 9 10 11 12 13 14 15 16 17 18 19 20 21 22 23 24 25 26 27 28 29 30 31 32 33 34 35 36
483
FTUS43 KFGF 221802 AAA
TAFDVL
TAF AMD
KDVL 221802Z 2218/2318 04017KT P6SM OVC015
      TEMPO 2218/2220 OVC035
     FM230000 36009KT P6SM OVC015
     FM230500 36005KT P6SM BKN040
     FM231000 02006KT P6SM BKN020=

USA.gov is the U.S. government's official web portal to all federal, state and local government web resources and services.